Thunderstorms From: 19-06-2018 01:00 Until: 16:00 warning for: Thunderstorms Level: Orange info button
english:
Locally thunderstorms

Ελληνικά:
Τοπικές καταιγίδες 

Kopaida air sports center. The private airport (CTAF) Kopaida (ZZZZ) located near Athens southwest of Castle village in Voiotia,
just one hour from leaving the National Road Athens - Lamia of Kifissia. The exact location of the airport is N 38 ° 27.41 'and E 023 ° 08.18'.



Kopaida NW more information Kopaida NW


Agios Dimitrios more information Agios Dimitrios


warning for Thunderstorms more information blitzortung!


Kopaida live view NE

Athens SkydiveBecome a Skydiver

Spot fly AviationSpot Flight Academy



Nearby METAR Reports

   
LGTG - Tanagra
Updated: 19-06-2018 04:50
Few Clouds  
Few Clouds  
   Wind: Calm
Wind: Calm
Temperature: 4°C
Dew Point: 18°C
Humidity: 250%
Barometer: 1011 hPa
Clouds: Few Clouds
Visibility: More than 10 km
Cloud details: Few Clouds 2500 ft
LGTG 190150Z 00000KT 9999 FEW025 04/18 Q1011 RMK FEW080 FEW180 BLU
LGBL - Anchialos
Updated: 19-06-2018 04:50
Light Thunderstorm, Rain, Partly Cloudy  
Light Thunderstorm, Rain, Partly Cloudy  
   Wind: West 9.3 km/h
Wind: West 9.3 km/h
Temperature: 20°C
Dew Point: 17°C
Humidity: 83%
Barometer: 1011 hPa
Clouds: Partly Cloudy
Visibility: More than 10 km
Cloud details: Few Clouds 1800 ft,
Few Clouds 2000 ft,
Partly Cloudy 3000 ft
LGBL 190150Z 27005KT 9999 -TSRA FEW018CB FEW020TCU SCT030 20/17 Q1011
LGKR - Corfu
Updated: 19-06-2018 05:20
Partly Cloudy  
Partly Cloudy  
   Wind: West 3.7 km/h
Wind: West 3.7 km/h
Temperature: 21°C
Dew Point: 19°C
Humidity: 88%
Barometer: 1009 hPa
Clouds: Partly Cloudy
Visibility: More than 10 km
Cloud details: Few Clouds 1800 ft,
Partly Cloudy 8000 ft
LGKR 190220Z 27002KT 9999 FEW018 SCT080 21/19 Q1009 NOSIG
LGAV - Eleftherios Venizelos
Updated: 19-06-2018 05:20
Clear  
Clear  
   Wind: NNE 13 km/h
Wind: NNE 13 km/h
Temperature: 20°C
Dew Point: 16°C
Humidity: 78%
Barometer: 1010 hPa
Visibility: More than 10 km
Cloud details: Clear ft
LGAV 190220Z 02007KT CAVOK 20/16 Q1010 NOSIG
LGMT - Mytilene
Updated: 19-06-2018 05:20
Clear  
Clear  
   Wind: varies 3.7 km/h
Wind: varies 3.7 km/h
Temperature: 23°C
Dew Point: 18°C
Humidity: 74%
Barometer: 1009 hPa
Visibility: More than 10 km
Cloud details: Clear ft
LGMT 190220Z VRB02KT CAVOK 23/18 Q1009
LGIR - Heraklion
Updated: 19-06-2018 05:20
Few Clouds  
Few Clouds  
   Wind: South 7.4 km/h
Wind: South 7.4 km/h
Temperature: 21°C
Dew Point: 19°C
Humidity: 88%
Barometer: 1009 hPa
Clouds: Few Clouds
Visibility: More than 10 km
Cloud details: Few Clouds 2000 ft
LGIR 190220Z 17004KT 9999 FEW020 21/19 Q1009 NOSIG
LGRP - Rhodes
Updated: 19-06-2018 05:20
Few Clouds  
Few Clouds  
   Wind: SW 13 km/h
Wind: SW 13 km/h
Temperature: 23°C
Dew Point: 22°C
Humidity: 94%
Barometer: 1007 hPa
Clouds: Few Clouds
Visibility: More than 10 km
Cloud details: Few Clouds 2000 ft
LGRP 190220Z 22007KT 9999 FEW020 23/22 Q1007 NOSIG
LGKV - Kavala
Updated: 19-06-2018 05:20
Partly Cloudy  
Partly Cloudy  
   Wind: Calm
Wind: Calm
Temperature: 20°C
Dew Point: 18°C
Humidity: 88%
Barometer: 1011 hPa
Clouds: Partly Cloudy
Visibility: More than 10 km
Cloud details: Partly Cloudy 3000 ft,
Partly Cloudy 8000 ft
LGKV 190220Z 00000KT 9999 SCT030 SCT080 20/18 Q1011
LGMK - Mikonos
Updated: 19-06-2018 05:20
Few Clouds  
Few Clouds  
   Wind: North 18.5 km/h
Wind: North 18.5 km/h
Temperature: 22°C
Dew Point: 20°C
Humidity: 88%
Barometer: 1008 hPa
Clouds: Few Clouds
Visibility: More than 10 km
Cloud details: Few Clouds 800 ft
LGMK 190220Z 36010KT 9999 FEW008 22/20 Q1008

Script developed by  Saratoga-weather.org Adapted for the template by  Weerstation Leuven

You find our weather info also at:

UK Metoffice

European Weather Network

WeatherCloud

Weather Underground

AWEKAS

Citizen Weather Observer Program (CWOP)

HAMweather, WeatherForYou, PWS Weather

Equipment we use:

Weather-station
Wireless Vantage Pro2

Weather-program
Weather Display

Wireless Vantage Pro2

Weather Display


Never base important decisions on this or any weather information obtained from the Internet

Kopaida airport (ZZZZ) - CTAF frequency : 119.700 - Tanagra(LGTG) MATZ 120.250

Airport Phone +306977612200, +302268041170, Contact Mr. George Papadopoulos.